Time;durP1;ratioP1;P1;durP2;ratioP2;P2;SDS_P1;SDS_P2;PMS_P1;PMS_P2;Temp;Humidity;BMP_temperature;BMP_pressure;BME280_temperature;BME280_humidity;BME280_pressure;Samples;Min_cycle;Max_cycle;Signal;HPM_P1;HPM_P2
2023/02/08 00:00:05;;;;;;;108.30;60.40;;;;;;;-128.00;-1.00;-1.00;104856;1264;1003915;-80
2023/02/08 00:02:52;;;;;;;111.30;58.80;;;;;;;-128.00;-1.00;-1.00;104740;1264;1055623;-79
2023/02/08 00:05:19;;;;;;;115.30;63.40;;;;;;;-128.00;-1.00;-1.00;104791;1264;1003645;-80
2023/02/08 00:07:45;;;;;;;119.30;64.00;;;;;;;-128.00;-1.00;-1.00;104981;1264;1003702;-77
2023/02/08 00:10:12;;;;;;;112.00;66.40;;;;;;;-128.00;-1.00;-1.00;104958;1264;1004363;-79
2023/02/08 00:12:39;;;;;;;119.90;68.80;;;;;;;-128.00;-1.00;-1.00;104967;1264;1003981;-79
2023/02/08 00:15:06;;;;;;;104.80;61.30;;;;;;;-128.00;-1.00;-1.00;104968;1264;1005194;-80
2023/02/08 00:17:32;;;;;;;114.10;63.50;;;;;;;-128.00;-1.00;-1.00;105022;1264;1003425;-79
2023/02/08 00:19:59;;;;;;;118.70;62.70;;;;;;;-128.00;-1.00;-1.00;105032;1264;1005151;-80
2023/02/08 00:22:26;;;;;;;103.30;55.80;;;;;;;-128.00;-1.00;-1.00;105091;1264;1004509;-80
2023/02/08 00:24:52;;;;;;;116.50;63.40;;;;;;;-128.00;-1.00;-1.00;105134;1264;1003676;-79
2023/02/08 00:27:19;;;;;;;118.50;62.30;;;;;;;-128.00;-1.00;-1.00;105039;1264;1004623;-80
2023/02/08 00:29:46;;;;;;;118.00;68.50;;;;;;;-128.00;-1.00;-1.00;104712;1264;1004139;-80
2023/02/08 00:32:13;;;;;;;115.50;68.80;;;;;;;-128.00;-1.00;-1.00;103975;1266;1004195;-79
2023/02/08 00:34:40;;;;;;;115.80;69.30;;;;;;;-128.00;-1.00;-1.00;104649;1264;1004005;-79
2023/02/08 00:37:06;;;;;;;114.90;71.00;;;;;;;-128.00;-1.00;-1.00;104969;1264;1004520;-79
2023/02/08 00:39:33;;;;;;;121.90;71.50;;;;;;;-128.00;-1.00;-1.00;104958;1267;1004518;-79
2023/02/08 00:42:00;;;;;;;109.20;66.60;;;;;;;-128.00;-1.00;-1.00;104965;1264;1003655;-78
2023/02/08 00:44:26;;;;;;;113.60;68.70;;;;;;;-128.00;-1.00;-1.00;104948;1265;1003599;-80
2023/02/08 00:46:53;;;;;;;117.30;69.10;;;;;;;-128.00;-1.00;-1.00;104989;1264;1003751;-80
2023/02/08 00:49:20;;;;;;;103.90;63.00;;;;;;;-128.00;-1.00;-1.00;104964;1264;1003979;-79
2023/02/08 00:51:46;;;;;;;102.90;61.70;;;;;;;-128.00;-1.00;-1.00;104974;1263;1005996;-80
2023/02/08 00:54:15;;;;;;;103.70;64.00;;;;;;;-128.00;-1.00;-1.00;104962;1264;1004651;-79
2023/02/08 00:56:42;;;;;;;113.80;63.80;;;;;;;-128.00;-1.00;-1.00;104779;1264;1004300;-80
2023/02/08 00:59:09;;;;;;;102.60;61.50;;;;;;;-128.00;-1.00;-1.00;104853;1264;1003794;-80
2023/02/08 01:01:37;;;;;;;111.60;64.20;;;;;;;-128.00;-1.00;-1.00;104717;1264;1005415;-81
2023/02/08 01:04:04;;;;;;;109.40;63.00;;;;;;;-128.00;-1.00;-1.00;104980;1264;1004443;-81
2023/02/08 01:06:31;;;;;;;112.20;63.70;;;;;;;-128.00;-1.00;-1.00;104922;1264;1003911;-80
2023/02/08 01:08:58;;;;;;;107.30;60.70;;;;;;;-128.00;-1.00;-1.00;104651;1264;1004568;-79
2023/02/08 01:11:25;;;;;;;108.60;64.40;;;;;;;-128.00;-1.00;-1.00;104985;1264;1004715;-81
2023/02/08 01:13:56;;;;;;;109.20;64.30;;;;;;;-128.00;-1.00;-1.00;104856;1266;1005002;-80
2023/02/08 01:16:28;;;;;;;107.30;61.00;;;;;;;-128.00;-1.00;-1.00;104908;1264;1055997;-80
2023/02/08 01:18:57;;;;;;;100.00;59.90;;;;;;;-128.00;-1.00;-1.00;104919;1264;1057913;-80
2023/02/08 01:21:26;;;;;;;112.00;66.60;;;;;;;-128.00;-1.00;-1.00;104968;1264;1003900;-81
2023/02/08 01:23:54;;;;;;;115.00;66.00;;;;;;;-128.00;-1.00;-1.00;104945;1264;1046819;-80
2023/02/08 01:26:22;;;;;;;107.70;64.70;;;;;;;-128.00;-1.00;-1.00;104880;1264;1004664;-79
2023/02/08 01:28:49;;;;;;;107.50;67.00;;;;;;;-128.00;-1.00;-1.00;104579;1264;1003812;-80
2023/02/08 01:31:20;;;;;;;106.70;64.70;;;;;;;-128.00;-1.00;-1.00;104939;1264;1003673;-80
2023/02/08 01:33:47;;;;;;;105.70;63.20;;;;;;;-128.00;-1.00;-1.00;104740;1264;1046594;-77
2023/02/08 01:36:15;;;;;;;105.10;62.50;;;;;;;-128.00;-1.00;-1.00;104970;1264;1005131;-79
2023/02/08 01:38:43;;;;;;;104.90;64.90;;;;;;;-128.00;-1.00;-1.00;104982;1264;1004442;-80
2023/02/08 01:41:15;;;;;;;107.10;61.60;;;;;;;-128.00;-1.00;-1.00;104946;1264;1004364;-79
2023/02/08 01:44:00;;;;;;;103.90;61.70;;;;;;;-128.00;-1.00;-1.00;104988;1264;1061394;-79
2023/02/08 01:46:27;;;;;;;108.00;61.10;;;;;;;-128.00;-1.00;-1.00;104944;1264;1047028;-79
2023/02/08 01:48:58;;;;;;;105.30;63.10;;;;;;;-128.00;-1.00;-1.00;104949;1263;1003953;-80
2023/02/08 01:51:29;;;;;;;104.50;64.50;;;;;;;-128.00;-1.00;-1.00;104754;1264;1063056;-79
2023/02/08 01:53:57;;;;;;;107.70;65.50;;;;;;;-128.00;-1.00;-1.00;104984;1264;1055833;-80
2023/02/08 01:56:32;;;;;;;108.70;65.60;;;;;;;-128.00;-1.00;-1.00;104950;1264;1003544;-80
2023/02/08 01:59:03;;;;;;;109.90;65.50;;;;;;;-128.00;-1.00;-1.00;104988;1269;1045594;-80
2023/02/08 02:01:30;;;;;;;115.30;66.50;;;;;;;-128.00;-1.00;-1.00;105025;1266;1046797;-79
2023/02/08 02:04:02;;;;;;;109.80;64.90;;;;;;;-128.00;-1.00;-1.00;104979;1266;1004541;-81
2023/02/08 02:06:35;;;;;;;100.20;61.80;;;;;;;-128.00;-1.00;-1.00;104882;1266;1056131;-81
2023/02/08 02:09:13;;;;;;;111.20;64.60;;;;;;;-128.00;-1.00;-1.00;104781;1266;1058887;-79
2023/02/08 02:11:41;;;;;;;103.60;64.70;;;;;;;-128.00;-1.00;-1.00;104857;1266;1047450;-81
2023/02/08 02:14:09;;;;;;;104.60;62.90;;;;;;;-128.00;-1.00;-1.00;104886;1266;1004643;-79
2023/02/08 02:16:35;;;;;;;102.00;61.90;;;;;;;-128.00;-1.00;-1.00;104029;1270;1005339;-80
2023/02/08 02:19:07;;;;;;;98.60;63.50;;;;;;;-128.00;-1.00;-1.00;104860;1269;1003268;-80
2023/02/08 02:21:56;;;;;;;106.70;63.00;;;;;;;-128.00;-1.00;-1.00;104867;1266;1060522;-79
2023/02/08 02:24:49;;;;;;;108.40;64.90;;;;;;;-128.00;-1.00;-1.00;104764;1266;1046726;-80
2023/02/08 02:27:28;;;;;;;103.00;60.90;;;;;;;-128.00;-1.00;-1.00;104842;1266;1048339;-80
2023/02/08 02:30:27;;;;;;;108.00;61.30;;;;;;;-128.00;-1.00;-1.00;104829;1267;1062363;-80
2023/02/08 02:33:14;;;;;;;100.60;62.00;;;;;;;-128.00;-1.00;-1.00;103639;1270;1056373;-80
2023/02/08 02:35:58;;;;;;;102.10;63.90;;;;;;;-128.00;-1.00;-1.00;104087;1276;1058978;-79
2023/02/08 02:38:37;;;;;;;97.20;58.80;;;;;;;-128.00;-1.00;-1.00;104380;1272;1046090;-79
2023/02/08 02:43:40;;;;;;;109.10;63.90;;;;;;;-128.00;-1.00;-1.00;104109;1276;1046714;-79
2023/02/08 02:44:18;;;;;;;112.70;67.90;;;;;;;-128.00;-1.00;-1.00;104307;1272;1061765;-79
2023/02/08 02:47:01;;;;;;;108.60;66.90;;;;;;;-128.00;-1.00;-1.00;104408;1274;1055872;-79
2023/02/08 02:49:47;;;;;;;108.50;66.70;;;;;;;-128.00;-1.00;-1.00;104371;1272;1061826;-80
2023/02/08 02:52:21;;;;;;;113.00;68.20;;;;;;;-128.00;-1.00;-1.00;104349;1272;1046118;-80
2023/02/08 02:54:54;;;;;;;111.30;68.10;;;;;;;-128.00;-1.00;-1.00;104376;1271;1047043;-81
2023/02/08 02:57:25;;;;;;;107.50;64.30;;;;;;;-128.00;-1.00;-1.00;104472;1270;1062008;-80
2023/02/08 02:59:53;;;;;;;113.90;68.10;;;;;;;-128.00;-1.00;-1.00;104512;1271;1056493;-80
2023/02/08 03:02:20;;;;;;;117.20;69.80;;;;;;;-128.00;-1.00;-1.00;104321;1270;1004957;-80
2023/02/08 03:04:53;;;;;;;109.30;67.10;;;;;;;-128.00;-1.00;-1.00;104306;1272;1004384;-79
2023/02/08 03:07:20;;;;;;;116.20;67.70;;;;;;;-128.00;-1.00;-1.00;104502;1270;1047155;-81
2023/02/08 03:09:47;;;;;;;107.00;66.10;;;;;;;-128.00;-1.00;-1.00;104787;1266;1003829;-80
2023/02/08 03:12:33;;;;;;;110.00;65.20;;;;;;;-128.00;-1.00;-1.00;104628;1271;1004848;-81
2023/02/08 03:15:15;;;;;;;112.10;64.00;;;;;;;-128.00;-1.00;-1.00;104815;1267;1059741;-77
2023/02/08 03:18:20;;;;;;;112.30;67.80;;;;;;;-128.00;-1.00;-1.00;104856;1267;1046291;-80
2023/02/08 03:21:09;;;;;;;106.60;64.10;;;;;;;-128.00;-1.00;-1.00;104426;1271;1047022;-80
2023/02/08 03:23:46;;;;;;;115.60;67.80;;;;;;;-128.00;-1.00;-1.00;104388;1272;1062611;-79
2023/02/08 03:26:28;;;;;;;109.40;64.50;;;;;;;-128.00;-1.00;-1.00;104396;1272;1056188;-80
2023/02/08 03:29:01;;;;;;;104.60;64.40;;;;;;;-128.00;-1.00;-1.00;104365;1272;1058525;-79
2023/02/08 03:31:36;;;;;;;104.80;63.80;;;;;;;-128.00;-1.00;-1.00;104388;1272;1046068;-79
2023/02/08 03:34:16;;;;;;;110.90;63.50;;;;;;;-128.00;-1.00;-1.00;104417;1271;1047139;-80
2023/02/08 03:37:02;;;;;;;119.60;69.80;;;;;;;-128.00;-1.00;-1.00;104312;1273;1062560;-80
2023/02/08 03:39:33;;;;;;;117.70;69.00;;;;;;;-128.00;-1.00;-1.00;104214;1272;1057323;-78
2023/02/08 03:42:05;;;;;;;117.50;68.60;;;;;;;-128.00;-1.00;-1.00;104526;1274;1059606;-80
2023/02/08 03:44:36;;;;;;;109.20;64.50;;;;;;;-128.00;-1.00;-1.00;104547;1273;1046932;-78
2023/02/08 03:47:08;;;;;;;107.30;63.60;;;;;;;-128.00;-1.00;-1.00;104488;1271;1047629;-78
2023/02/08 03:49:37;;;;;;;106.40;62.60;;;;;;;-128.00;-1.00;-1.00;104403;1273;1062536;-80
2023/02/08 03:52:08;;;;;;;103.50;63.10;;;;;;;-128.00;-1.00;-1.00;104427;1273;1055930;-81
2023/02/08 03:54:45;;;;;;;107.80;60.40;;;;;;;-128.00;-1.00;-1.00;104454;1271;1059230;-80
2023/02/08 03:57:19;;;;;;;102.20;63.40;;;;;;;-128.00;-1.00;-1.00;104442;1266;1046806;-78
2023/02/08 03:59:54;;;;;;;105.60;61.10;;;;;;;-128.00;-1.00;-1.00;104829;1266;1046889;-79
2023/02/08 04:02:25;;;;;;;104.40;60.30;;;;;;;-128.00;-1.00;-1.00;104795;1266;1062608;-79
2023/02/08 04:04:52;;;;;;;101.30;59.00;;;;;;;-128.00;-1.00;-1.00;104862;1266;1054840;-78
2023/02/08 04:07:19;;;;;;;98.60;60.10;;;;;;;-128.00;-1.00;-1.00;104827;1266;1004656;-79
2023/02/08 04:09:46;;;;;;;98.80;56.20;;;;;;;-128.00;-1.00;-1.00;104769;1267;1003730;-80
2023/02/08 04:12:13;;;;;;;98.20;59.10;;;;;;;-128.00;-1.00;-1.00;104087;1266;1004315;-80
2023/02/08 04:14:40;;;;;;;100.60;58.00;;;;;;;-128.00;-1.00;-1.00;104846;1265;1004428;-79
2023/02/08 04:17:07;;;;;;;99.80;61.10;;;;;;;-128.00;-1.00;-1.00;104851;1267;1003751;-80
2023/02/08 04:19:33;;;;;;;98.00;59.20;;;;;;;-128.00;-1.00;-1.00;104843;1265;1004287;-78
2023/02/08 04:22:00;;;;;;;98.90;57.40;;;;;;;-128.00;-1.00;-1.00;104845;1267;1004002;-80
2023/02/08 04:24:27;;;;;;;102.10;59.70;;;;;;;-128.00;-1.00;-1.00;104852;1267;1004497;-80
2023/02/08 04:26:53;;;;;;;100.80;62.10;;;;;;;-128.00;-1.00;-1.00;104874;1267;1003920;-80
2023/02/08 04:29:20;;;;;;;105.10;60.20;;;;;;;-128.00;-1.00;-1.00;104853;1267;1004701;-81
2023/02/08 04:31:47;;;;;;;110.30;62.40;;;;;;;-128.00;-1.00;-1.00;104704;1266;1003707;-80
2023/02/08 04:34:14;;;;;;;102.00;64.30;;;;;;;-128.00;-1.00;-1.00;104809;1266;1003615;-79
2023/02/08 04:36:41;;;;;;;103.40;60.20;;;;;;;-128.00;-1.00;-1.00;104826;1266;1004215;-79
2023/02/08 04:39:08;;;;;;;99.90;56.60;;;;;;;-128.00;-1.00;-1.00;104859;1266;1004198;-80
2023/02/08 04:41:35;;;;;;;97.30;60.60;;;;;;;-128.00;-1.00;-1.00;104744;1266;1004087;-79
2023/02/08 04:44:01;;;;;;;93.10;57.40;;;;;;;-128.00;-1.00;-1.00;104838;1266;1003860;-80
2023/02/08 04:46:28;;;;;;;92.90;56.50;;;;;;;-128.00;-1.00;-1.00;104836;1266;1004136;-80
2023/02/08 04:48:55;;;;;;;94.60;57.80;;;;;;;-128.00;-1.00;-1.00;103749;1266;1003953;-80
2023/02/08 04:51:21;;;;;;;91.20;52.90;;;;;;;-128.00;-1.00;-1.00;104552;1265;1004191;-80
2023/02/08 04:53:48;;;;;;;86.20;51.80;;;;;;;-128.00;-1.00;-1.00;104845;1266;1004414;-80
2023/02/08 04:56:15;;;;;;;89.30;51.70;;;;;;;-128.00;-1.00;-1.00;104782;1266;1004146;-80
2023/02/08 04:58:41;;;;;;;81.30;51.20;;;;;;;-128.00;-1.00;-1.00;104905;1264;1004708;-80
2023/02/08 05:01:11;;;;;;;95.30;55.70;;;;;;;-128.00;-1.00;-1.00;104776;1264;1004523;-80
2023/02/08 05:03:38;;;;;;;;;;;;;;;-128.00;-1.00;-1.00;104981;1264;1061615;-80
2023/02/08 05:06:05;;;;;;;94.50;56.80;;;;;;;-128.00;-1.00;-1.00;104944;1264;1004454;-79
2023/02/08 05:08:31;;;;;;;86.70;51.80;;;;;;;-128.00;-1.00;-1.00;104963;1264;1004054;-80
2023/02/08 05:10:58;;;;;;;97.90;56.10;;;;;;;-128.00;-1.00;-1.00;104950;1264;1004011;-80
2023/02/08 05:13:25;;;;;;;97.50;59.90;;;;;;;-128.00;-1.00;-1.00;104948;1264;1004196;-78
2023/02/08 05:15:52;;;;;;;101.80;63.60;;;;;;;-128.00;-1.00;-1.00;104941;1264;1004090;-79
2023/02/08 05:18:18;;;;;;;105.20;61.70;;;;;;;-128.00;-1.00;-1.00;104937;1264;1004604;-80
2023/02/08 05:20:53;;;;;;;87.80;54.60;;;;;;;-128.00;-1.00;-1.00;104918;1264;1004058;-80
2023/02/08 05:23:20;;;;;;;98.20;57.20;;;;;;;-128.00;-1.00;-1.00;104955;1264;1046287;-80
2023/02/08 05:25:46;;;;;;;94.60;56.60;;;;;;;-128.00;-1.00;-1.00;104956;1264;1004504;-80
2023/02/08 05:28:13;;;;;;;97.60;55.50;;;;;;;-128.00;-1.00;-1.00;104974;1264;1003527;-80
2023/02/08 05:30:40;;;;;;;94.40;55.60;;;;;;;-128.00;-1.00;-1.00;104189;1264;1004178;-80
2023/02/08 05:33:07;;;;;;;104.50;57.20;;;;;;;-128.00;-1.00;-1.00;104906;1264;1004348;-79
2023/02/08 05:35:33;;;;;;;95.50;58.50;;;;;;;-128.00;-1.00;-1.00;104760;1264;1004938;-80
2023/02/08 05:38:00;;;;;;;100.10;60.60;;;;;;;-128.00;-1.00;-1.00;104968;1264;1004020;-80
2023/02/08 05:40:27;;;;;;;105.80;60.60;;;;;;;-128.00;-1.00;-1.00;104956;1264;1004476;-80
2023/02/08 05:42:53;;;;;;;99.30;56.90;;;;;;;-128.00;-1.00;-1.00;104920;1264;1004588;-80
2023/02/08 05:45:20;;;;;;;96.20;57.30;;;;;;;-128.00;-1.00;-1.00;104934;1264;1005384;-79
2023/02/08 05:47:46;;;;;;;95.80;55.30;;;;;;;-128.00;-1.00;-1.00;104938;1264;1005662;-80
2023/02/08 05:50:13;;;;;;;100.00;57.60;;;;;;;-128.00;-1.00;-1.00;104976;1264;1004237;-80
2023/02/08 05:52:40;;;;;;;88.60;49.40;;;;;;;-128.00;-1.00;-1.00;104929;1264;1004265;-80
2023/02/08 05:55:07;;;;;;;95.90;56.90;;;;;;;-128.00;-1.00;-1.00;104961;1264;1003776;-79
2023/02/08 05:57:34;;;;;;;87.70;51.60;;;;;;;-128.00;-1.00;-1.00;104937;1264;1005457;-79
2023/02/08 06:00:05;;;;;;;80.20;50.00;;;;;;;-128.00;-1.00;-1.00;104143;1264;1003293;-79
2023/02/08 06:02:33;;;;;;;86.50;49.20;;;;;;;-128.00;-1.00;-1.00;104958;1264;1047224;-78
2023/02/08 06:04:59;;;;;;;85.10;50.90;;;;;;;-128.00;-1.00;-1.00;104949;1264;1005997;-77
2023/02/08 06:07:28;;;;;;;87.20;51.90;;;;;;;-128.00;-1.00;-1.00;104802;1264;1003634;-78
2023/02/08 06:09:55;;;;;;;94.10;55.30;;;;;;;-128.00;-1.00;-1.00;104940;1264;1058811;-78
2023/02/08 06:12:21;;;;;;;88.20;54.30;;;;;;;-128.00;-1.00;-1.00;104919;1264;1004461;-79
2023/02/08 06:14:48;;;;;;;101.10;56.10;;;;;;;-128.00;-1.00;-1.00;104955;1264;1003789;-77
2023/02/08 06:17:15;;;;;;;88.20;52.80;;;;;;;-128.00;-1.00;-1.00;104942;1264;1004785;-79
2023/02/08 06:19:42;;;;;;;94.40;55.40;;;;;;;-128.00;-1.00;-1.00;104944;1264;1003476;-80
2023/02/08 06:22:09;;;;;;;94.90;53.80;;;;;;;-128.00;-1.00;-1.00;104935;1264;1004226;-77
2023/02/08 06:24:35;;;;;;;85.10;48.30;;;;;;;-128.00;-1.00;-1.00;104959;1264;1004360;-79
2023/02/08 06:27:02;;;;;;;97.30;53.40;;;;;;;-128.00;-1.00;-1.00;104939;1264;1003792;-79
2023/02/08 06:29:29;;;;;;;92.70;54.40;;;;;;;-128.00;-1.00;-1.00;104781;1264;1003749;-79
2023/02/08 06:31:56;;;;;;;88.40;51.40;;;;;;;-128.00;-1.00;-1.00;104945;1264;1004464;-77
2023/02/08 06:34:22;;;;;;;93.00;54.80;;;;;;;-128.00;-1.00;-1.00;104759;1264;1004391;-78
2023/02/08 06:36:49;;;;;;;102.10;58.30;;;;;;;-128.00;-1.00;-1.00;104942;1264;1004371;-78
2023/02/08 06:39:16;;;;;;;101.00;60.60;;;;;;;-128.00;-1.00;-1.00;104493;1264;1003579;-78
2023/02/08 06:41:43;;;;;;;102.10;60.40;;;;;;;-128.00;-1.00;-1.00;104584;1264;1004890;-78
2023/02/08 06:44:09;;;;;;;103.10;65.10;;;;;;;-128.00;-1.00;-1.00;104941;1264;1004082;-77
2023/02/08 06:46:36;;;;;;;111.90;66.20;;;;;;;-128.00;-1.00;-1.00;104938;1264;1004198;-80
2023/02/08 06:49:03;;;;;;;109.50;69.70;;;;;;;-128.00;-1.00;-1.00;104927;1264;1004276;-78
2023/02/08 06:51:29;;;;;;;112.80;66.60;;;;;;;-128.00;-1.00;-1.00;104981;1264;1004695;-78
2023/02/08 06:53:56;;;;;;;118.20;71.00;;;;;;;-128.00;-1.00;-1.00;105000;1264;1003239;-79
2023/02/08 06:56:22;;;;;;;111.40;72.60;;;;;;;-128.00;-1.00;-1.00;104994;1264;1004594;-80
2023/02/08 06:58:49;;;;;;;114.70;65.10;;;;;;;-128.00;-1.00;-1.00;104957;1264;1004759;-79
2023/02/08 07:01:16;;;;;;;103.80;64.10;;;;;;;-128.00;-1.00;-1.00;104487;1269;1004789;-78
2023/02/08 07:03:43;;;;;;;94.70;57.50;;;;;;;-128.00;-1.00;-1.00;104495;1269;1004146;-79
2023/02/08 07:06:15;;;;;;;82.20;47.90;;;;;;;-128.00;-1.00;-1.00;104550;1269;1004031;-79
2023/02/08 07:08:42;;;;;;;84.60;50.20;;;;;;;-128.00;-1.00;-1.00;104502;1269;1056224;-79
2023/02/08 07:11:10;;;;;;;83.70;54.90;;;;;;;-128.00;-1.00;-1.00;103814;1269;1004178;-80
2023/02/08 07:13:37;;;;;;;102.40;60.50;;;;;;;-128.00;-1.00;-1.00;104456;1269;1045681;-78
2023/02/08 07:16:06;;;;;;;92.40;60.10;;;;;;;-128.00;-1.00;-1.00;104617;1268;1004074;-78
2023/02/08 07:18:33;;;;;;;90.80;58.90;;;;;;;-128.00;-1.00;-1.00;104534;1269;1004099;-78
2023/02/08 07:20:59;;;;;;;83.40;51.90;;;;;;;-128.00;-1.00;-1.00;104569;1269;1003419;-78
2023/02/08 07:23:26;;;;;;;91.50;56.40;;;;;;;-128.00;-1.00;-1.00;104572;1268;1004574;-79
2023/02/08 07:26:02;;;;;;;98.90;58.40;;;;;;;-128.00;-1.00;-1.00;104539;1269;1004347;-79
2023/02/08 07:28:29;;;;;;;115.60;67.70;;;;;;;-128.00;-1.00;-1.00;104505;1269;1047497;-79
2023/02/08 07:30:56;;;;;;;127.00;80.30;;;;;;;-128.00;-1.00;-1.00;104611;1270;1004180;-79
2023/02/08 07:33:24;;;;;;;110.60;74.20;;;;;;;-128.00;-1.00;-1.00;104780;1264;1003547;-79
2023/02/08 07:35:50;;;;;;;78.50;52.40;;;;;;;-128.00;-1.00;-1.00;104929;1265;1004101;-79
2023/02/08 07:38:17;;;;;;;76.80;49.80;;;;;;;-128.00;-1.00;-1.00;104883;1265;1004535;-78
2023/02/08 07:40:44;;;;;;;64.70;39.60;;;;;;;-128.00;-1.00;-1.00;104880;1265;1004119;-78
2023/02/08 07:43:11;;;;;;;60.50;37.80;;;;;;;-128.00;-1.00;-1.00;104904;1265;1004583;-81
2023/02/08 07:45:37;;;;;;;60.30;37.70;;;;;;;-128.00;-1.00;-1.00;104600;1265;1004344;-76
2023/02/08 07:48:04;;;;;;;58.00;35.50;;;;;;;-128.00;-1.00;-1.00;104788;1265;1004083;-80
2023/02/08 07:50:31;;;;;;;56.70;38.20;;;;;;;-128.00;-1.00;-1.00;104891;1265;1003481;-80
2023/02/08 07:52:58;;;;;;;59.20;35.50;;;;;;;-128.00;-1.00;-1.00;104815;1265;1004879;-79
2023/02/08 07:55:26;;;;;;;62.20;39.60;;;;;;;-128.00;-1.00;-1.00;104961;1264;1004377;-80
2023/02/08 07:57:55;;;;;;;62.10;38.90;;;;;;;-128.00;-1.00;-1.00;104971;1264;1004927;-84
2023/02/08 08:00:22;;;;;;;69.40;39.20;;;;;;;-128.00;-1.00;-1.00;105006;1264;1059095;-80
2023/02/08 08:02:50;;;;;;;66.30;39.20;;;;;;;-128.00;-1.00;-1.00;104807;1265;1004047;-76
2023/02/08 08:05:17;;;;;;;70.10;40.30;;;;;;;-128.00;-1.00;-1.00;104919;1265;1004787;-76
2023/02/08 08:07:43;;;;;;;70.50;41.60;;;;;;;-128.00;-1.00;-1.00;104804;1265;1003675;-76
2023/02/08 08:10:10;;;;;;;68.30;41.10;;;;;;;-128.00;-1.00;-1.00;104948;1264;1004304;-77
2023/02/08 08:12:37;;;;;;;65.60;38.30;;;;;;;-128.00;-1.00;-1.00;104906;1265;1004769;-77
2023/02/08 08:15:04;;;;;;;66.70;38.90;;;;;;;-128.00;-1.00;-1.00;104618;1265;1003999;-77
2023/02/08 08:17:30;;;;;;;74.80;41.10;;;;;;;-128.00;-1.00;-1.00;104919;1265;1003621;-77
2023/02/08 08:19:57;;;;;;;68.60;41.70;;;;;;;-128.00;-1.00;-1.00;104923;1265;1003953;-77
2023/02/08 08:22:24;;;;;;;61.70;35.50;;;;;;;-128.00;-1.00;-1.00;104902;1265;1003609;-76
2023/02/08 08:24:50;;;;;;;64.30;36.90;;;;;;;-128.00;-1.00;-1.00;104143;1265;1003874;-76
2023/02/08 08:27:17;;;;;;;59.30;36.40;;;;;;;-128.00;-1.00;-1.00;104882;1265;1004485;-77
2023/02/08 08:29:44;;;;;;;52.80;33.30;;;;;;;-128.00;-1.00;-1.00;104849;1265;1004909;-77
2023/02/08 08:32:10;;;;;;;60.50;36.70;;;;;;;-128.00;-1.00;-1.00;104882;1265;1004501;-76
2023/02/08 08:34:37;;;;;;;59.40;37.50;;;;;;;-128.00;-1.00;-1.00;104846;1265;1005233;-77
2023/02/08 08:37:04;;;;;;;51.90;31.50;;;;;;;-128.00;-1.00;-1.00;104581;1265;1003902;-78
2023/02/08 08:39:31;;;;;;;51.90;34.40;;;;;;;-128.00;-1.00;-1.00;104850;1265;1003891;-76
2023/02/08 08:41:58;;;;;;;54.30;35.00;;;;;;;-128.00;-1.00;-1.00;104830;1265;1004578;-76
2023/02/08 08:44:25;;;;;;;54.70;33.10;;;;;;;-128.00;-1.00;-1.00;104831;1265;1004643;-77
2023/02/08 08:46:56;;;;;;;56.00;34.10;;;;;;;-128.00;-1.00;-1.00;104868;1265;1004263;-77
2023/02/08 08:49:24;;;;;;;56.30;31.50;;;;;;;-128.00;-1.00;-1.00;104839;1265;1059332;-78
2023/02/08 08:51:51;;;;;;;58.00;34.80;;;;;;;-128.00;-1.00;-1.00;104423;1265;1003706;-78
2023/02/08 08:54:18;;;;;;;55.80;32.70;;;;;;;-128.00;-1.00;-1.00;104885;1265;1003639;-78
2023/02/08 08:56:45;;;;;;;54.50;32.30;;;;;;;-128.00;-1.00;-1.00;104839;1265;1004045;-78
2023/02/08 08:59:14;;;;;;;53.50;34.60;;;;;;;-128.00;-1.00;-1.00;104896;1265;1004162;-78
2023/02/08 09:01:41;;;;;;;53.40;33.10;;;;;;;-128.00;-1.00;-1.00;104841;1265;1059840;-78
2023/02/08 09:04:09;;;;;;;50.10;29.70;;;;;;;-128.00;-1.00;-1.00;104829;1265;1004016;-79
2023/02/08 09:06:36;;;;;;;49.20;29.80;;;;;;;-128.00;-1.00;-1.00;104815;1265;1003745;-77
2023/02/08 09:09:03;;;;;;;51.80;29.40;;;;;;;-128.00;-1.00;-1.00;104863;1265;1004443;-78
2023/02/08 09:11:32;;;;;;;44.80;28.10;;;;;;;-128.00;-1.00;-1.00;104888;1264;1004151;-77
2023/02/08 09:14:01;;;;;;;44.40;27.30;;;;;;;-128.00;-1.00;-1.00;104882;1264;1058823;-77
2023/02/08 09:16:28;;;;;;;37.20;25.80;;;;;;;-128.00;-1.00;-1.00;104835;1265;1044722;-77
2023/02/08 09:18:55;;;;;;;41.90;26.50;;;;;;;-128.00;-1.00;-1.00;104874;1264;1003534;-78
2023/02/08 09:21:25;;;;;;;45.50;27.10;;;;;;;-128.00;-1.00;-1.00;104854;1264;1004749;-78
2023/02/08 09:23:52;;;;;;;43.90;28.00;;;;;;;-128.00;-1.00;-1.00;104849;1265;1056167;-78
2023/02/08 09:26:19;;;;;;;40.20;26.50;;;;;;;-128.00;-1.00;-1.00;104861;1264;1004249;-79
2023/02/08 09:28:46;;;;;;;37.40;24.90;;;;;;;-128.00;-1.00;-1.00;104520;1265;1004896;-77
2023/02/08 09:31:40;;;;;;;46.40;29.60;;;;;;;-128.00;-1.00;-1.00;104614;1265;1005504;-77
2023/02/08 09:34:07;;;;;;;37.70;25.30;;;;;;;-128.00;-1.00;-1.00;104868;1264;1062664;-77
2023/02/08 09:36:39;;;;;;;45.70;27.90;;;;;;;-128.00;-1.00;-1.00;104901;1264;1004747;-79
2023/02/08 09:39:15;;;;;;;36.20;23.40;;;;;;;-128.00;-1.00;-1.00;104872;1265;1058843;-78
2023/02/08 09:42:00;;;;;;;38.10;24.90;;;;;;;-128.00;-1.00;-1.00;104796;1265;1045097;-77
2023/02/08 09:44:31;;;;;;;43.90;27.90;;;;;;;-128.00;-1.00;-1.00;104551;1265;1047163;-77
2023/02/08 09:47:01;;;;;;;41.60;26.50;;;;;;;-128.00;-1.00;-1.00;104889;1265;1062474;-77
2023/02/08 09:49:39;;;;;;;40.50;24.80;;;;;;;-128.00;-1.00;-1.00;104727;1265;1057346;-78
2023/02/08 09:52:12;;;;;;;44.20;26.10;;;;;;;-128.00;-1.00;-1.00;104843;1265;1058413;-78
2023/02/08 09:54:45;;;;;;;38.80;23.30;;;;;;;-128.00;-1.00;-1.00;104761;1265;1044674;-78
2023/02/08 09:57:20;;;;;;;33.20;23.00;;;;;;;-128.00;-1.00;-1.00;104875;1265;1047406;-78
2023/02/08 10:00:42;;;;;;;41.50;27.90;;;;;;;-128.00;-1.00;-1.00;104872;1265;1062347;-77
2023/02/08 10:03:21;;;;;;;40.30;27.30;;;;;;;-128.00;-1.00;-1.00;104283;1272;1055926;-77
2023/02/08 10:05:47;;;;;;;46.30;28.50;;;;;;;-128.00;-1.00;-1.00;104299;1272;1059929;-77
2023/02/08 10:08:14;;;;;;;41.70;26.90;;;;;;;-128.00;-1.00;-1.00;104318;1272;1004808;-77
2023/02/08 10:10:53;;;;;;;41.40;26.80;;;;;;;-128.00;-1.00;-1.00;104275;1272;1004371;-77
2023/02/08 10:13:53;;;;;;;41.10;26.50;;;;;;;-128.00;-1.00;-1.00;104306;1272;1062946;-77
2023/02/08 10:16:46;;;;;;;31.80;21.10;;;;;;;-128.00;-1.00;-1.00;104322;1272;1055638;-77
2023/02/08 10:19:21;;;;;;;29.30;20.70;;;;;;;-128.00;-1.00;-1.00;104250;1272;1058946;-79
2023/02/08 10:22:13;;;;;;;35.00;23.50;;;;;;;-128.00;-1.00;-1.00;104251;1272;1045456;-78
2023/02/08 10:24:46;;;;;;;32.20;22.40;;;;;;;-128.00;-1.00;-1.00;104341;1272;1046767;-79
2023/02/08 10:27:31;;;;;;;32.90;23.00;;;;;;;-128.00;-1.00;-1.00;104291;1272;1061768;-79
2023/02/08 10:30:09;;;;;;;33.80;22.70;;;;;;;-128.00;-1.00;-1.00;104287;1272;1057439;-78
2023/02/08 10:33:00;;;;;;;37.00;24.00;;;;;;;-128.00;-1.00;-1.00;104272;1272;1059041;-78
2023/02/08 10:35:36;;;;;;;34.50;24.60;;;;;;;-128.00;-1.00;-1.00;104224;1272;1045477;-78
2023/02/08 10:38:18;;;;;;;41.80;25.40;;;;;;;-128.00;-1.00;-1.00;104786;1265;1046748;-78
2023/02/08 10:40:48;;;;;;;38.30;23.70;;;;;;;-128.00;-1.00;-1.00;104870;1265;1061755;-79
2023/02/08 10:43:34;;;;;;;33.70;23.40;;;;;;;-128.00;-1.00;-1.00;104906;1265;1056240;-79
2023/02/08 10:46:37;;;;;;;33.60;24.60;;;;;;;-128.00;-1.00;-1.00;104872;1265;1058432;-78
2023/02/08 10:49:14;;;;;;;39.50;25.40;;;;;;;-128.00;-1.00;-1.00;104736;1265;1045697;-78
2023/02/08 10:51:40;;;;;;;36.10;24.90;;;;;;;-128.00;-1.00;-1.00;104464;1265;1048278;-79
2023/02/08 10:54:14;;;;;;;40.00;26.00;;;;;;;-128.00;-1.00;-1.00;104858;1265;1003729;-79
2023/02/08 10:57:03;;;;;;;40.00;24.80;;;;;;;-128.00;-1.00;-1.00;104848;1265;1055045;-79
2023/02/08 10:59:35;;;;;;;42.70;28.40;;;;;;;-128.00;-1.00;-1.00;104736;1265;1059468;-77
2023/02/08 11:02:27;;;;;;;44.40;27.20;;;;;;;-128.00;-1.00;-1.00;104864;1265;1045580;-79
2023/02/08 11:05:00;;;;;;;42.00;27.90;;;;;;;-128.00;-1.00;-1.00;104666;1265;1046839;-79
2023/02/08 11:07:27;;;;;;;40.80;27.60;;;;;;;-128.00;-1.00;-1.00;104901;1265;1064171;-79
2023/02/08 11:10:13;;;;;;;37.00;24.10;;;;;;;-128.00;-1.00;-1.00;104894;1265;1003965;-79
2023/02/08 11:12:41;;;;;;;36.20;25.30;;;;;;;-128.00;-1.00;-1.00;104733;1265;1059746;-79
2023/02/08 11:15:39;;;;;;;41.00;27.00;;;;;;;-128.00;-1.00;-1.00;104857;1265;1004186;-79